createdAt,value
2018-07-27T00:01:59.648Z,41.60
2018-07-27T00:04:27.786Z,41.20
2018-07-27T00:06:55.903Z,40.90
2018-07-27T00:09:24.114Z,40.50
2018-07-27T00:11:52.336Z,40.50
2018-07-27T00:14:21.977Z,39.40
2018-07-27T00:16:50.084Z,39.10
2018-07-27T00:19:18.292Z,38.90
2018-07-27T00:21:46.577Z,39.10
2018-07-27T00:24:15.286Z,39.60
2018-07-27T00:26:43.412Z,39.70
2018-07-27T00:31:39.509Z,39.90
2018-07-27T00:34:07.632Z,40.10
2018-07-27T00:36:35.791Z,40.80
2018-07-27T00:39:06.068Z,40.50
2018-07-27T00:41:34.192Z,40.70
2018-07-27T00:44:02.375Z,41.90
2018-07-27T00:46:30.507Z,41.60
2018-07-27T00:48:58.632Z,41.90
2018-07-27T00:51:26.752Z,41.50
2018-07-27T00:53:54.900Z,42.70
2018-07-27T00:56:23.068Z,42.50
2018-07-27T00:58:51.219Z,43.00
2018-07-27T01:01:19.315Z,43.10
2018-07-27T01:03:47.443Z,42.80
2018-07-27T01:06:15.668Z,42.70
2018-07-27T01:08:43.878Z,43.20
2018-07-27T01:11:12.044Z,43.30
2018-07-27T01:13:40.175Z,43.20
2018-07-27T01:16:08.398Z,43.00
2018-07-27T01:18:36.593Z,43.60
2018-07-27T01:21:04.775Z,44.00
2018-07-27T01:23:32.938Z,44.90
2018-07-27T01:26:01.063Z,44.70
2018-07-27T01:28:29.243Z,44.00
2018-07-27T01:30:57.407Z,44.70
2018-07-27T01:33:25.597Z,44.50
2018-07-27T01:35:53.766Z,44.30
2018-07-27T01:38:21.901Z,44.90
2018-07-27T01:40:50.249Z,44.90
2018-07-27T01:43:18.408Z,45.50
2018-07-27T01:45:46.551Z,45.40
2018-07-27T01:48:14.737Z,45.70
2018-07-27T01:50:42.949Z,45.00
2018-07-27T01:53:11.091Z,45.30
2018-07-27T01:55:39.296Z,45.10
2018-07-27T01:58:07.507Z,44.90
2018-07-27T02:00:35.698Z,45.10
2018-07-27T02:03:04.199Z,45.00
2018-07-27T02:05:32.426Z,45.40
2018-07-27T02:08:00.563Z,45.30
2018-07-27T02:10:28.711Z,45.80
2018-07-27T02:12:56.957Z,45.70
2018-07-27T02:15:25.049Z,45.90
2018-07-27T02:17:53.182Z,45.30
2018-07-27T02:20:21.353Z,45.80
2018-07-27T02:22:49.515Z,45.40
2018-07-27T02:25:17.658Z,46.00
2018-07-27T02:27:45.891Z,46.40
2018-07-27T02:30:14.028Z,46.80
2018-07-27T02:32:42.254Z,46.40
2018-07-27T02:35:10.371Z,46.70
2018-07-27T02:37:39.539Z,46.50
2018-07-27T02:40:07.910Z,47.00
2018-07-27T02:42:36.020Z,47.10
2018-07-27T02:45:04.616Z,47.40
2018-07-27T02:47:32.769Z,47.70
2018-07-27T02:50:00.971Z,47.50
2018-07-27T02:52:29.125Z,47.30
2018-07-27T02:54:57.253Z,47.40
2018-07-27T02:57:25.398Z,48.10
2018-07-27T02:59:53.531Z,48.50
2018-07-27T03:02:21.716Z,48.00
2018-07-27T03:04:49.863Z,47.40
2018-07-27T03:07:17.988Z,48.00
2018-07-27T03:09:46.198Z,48.80
2018-07-27T03:14:42.247Z,49.20
2018-07-27T03:17:10.347Z,48.70
2018-07-27T03:19:38.473Z,49.50
2018-07-27T03:22:06.631Z,49.10
2018-07-27T03:24:34.750Z,49.00
2018-07-27T03:27:02.907Z,49.20
2018-07-27T03:29:31.013Z,49.40
2018-07-27T03:31:59.226Z,49.50
2018-07-27T03:34:28.028Z,49.60
2018-07-27T03:36:56.136Z,49.70
2018-07-27T03:39:24.337Z,49.60
2018-07-27T03:41:52.472Z,49.80
2018-07-27T03:44:20.908Z,50.20
2018-07-27T03:46:49.033Z,49.70
2018-07-27T03:49:17.171Z,49.70
2018-07-27T03:51:45.279Z,49.80
2018-07-27T03:54:13.498Z,49.80
2018-07-27T03:56:42.074Z,49.80
2018-07-27T03:59:10.187Z,50.10
2018-07-27T04:01:38.321Z,50.20
2018-07-27T04:04:06.587Z,49.70
2018-07-27T04:06:34.791Z,49.70
2018-07-27T04:09:02.984Z,50.50
2018-07-27T04:11:31.121Z,50.30
2018-07-27T04:13:59.258Z,50.70
2018-07-27T04:16:27.415Z,50.40
2018-07-27T04:18:55.555Z,50.50
2018-07-27T04:21:23.700Z,50.70
2018-07-27T04:23:51.871Z,51.50
2018-07-27T04:26:20.075Z,51.10
2018-07-27T04:28:48.167Z,51.30
2018-07-27T04:31:16.373Z,51.00
2018-07-27T04:33:44.546Z,51.20
2018-07-27T04:36:12.733Z,51.00
2018-07-27T04:38:40.907Z,50.70
2018-07-27T04:41:09.110Z,51.00
2018-07-27T04:43:38.184Z,50.70
2018-07-27T04:46:06.354Z,50.50
2018-07-27T04:48:34.525Z,50.60
2018-07-27T04:51:02.671Z,50.60
2018-07-27T04:53:30.826Z,51.40
2018-07-27T04:55:59.644Z,50.90
2018-07-27T04:58:27.892Z,50.70
2018-07-27T05:00:56.073Z,51.00
2018-07-27T05:05:52.279Z,50.60
2018-07-27T05:08:20.410Z,50.50
2018-07-27T05:10:49.411Z,50.00
2018-07-27T05:13:18.440Z,50.10
2018-07-27T05:15:47.696Z,49.30
2018-07-27T05:18:16.403Z,49.10
2018-07-27T05:20:45.486Z,48.90
2018-07-27T05:23:13.739Z,49.00
2018-07-27T05:25:41.919Z,49.00
2018-07-27T05:28:10.408Z,48.80
2018-07-27T05:30:38.517Z,48.20
2018-07-27T05:33:06.647Z,48.00
2018-07-27T05:35:34.783Z,48.60
2018-07-27T05:38:02.912Z,48.20
2018-07-27T05:40:31.050Z,48.50
2018-07-27T05:42:59.168Z,48.30
2018-07-27T05:45:27.273Z,48.50
2018-07-27T05:47:55.422Z,48.30
2018-07-27T05:50:23.533Z,48.20
2018-07-27T05:52:51.783Z,48.30
2018-07-27T05:55:19.883Z,48.00
2018-07-27T05:57:47.977Z,48.20
2018-07-27T06:00:16.109Z,48.70
2018-07-27T06:02:44.738Z,48.30
2018-07-27T06:05:12.911Z,48.00
2018-07-27T06:07:41.110Z,47.60
2018-07-27T06:10:09.285Z,47.70
2018-07-27T06:12:38.319Z,48.20
2018-07-27T06:15:06.878Z,47.90
2018-07-27T06:17:35.036Z,48.50
2018-07-27T06:20:03.230Z,47.50
2018-07-27T06:22:31.312Z,47.60
2018-07-27T06:27:27.327Z,47.50
2018-07-27T06:29:55.450Z,47.20
2018-07-27T06:32:23.577Z,47.60
2018-07-27T06:34:51.691Z,46.80
2018-07-27T06:37:19.807Z,47.20
2018-07-27T06:39:47.939Z,47.00
2018-07-27T06:42:16.267Z,47.10
2018-07-27T06:44:44.503Z,45.60
2018-07-27T06:47:12.636Z,44.80
2018-07-27T06:49:40.782Z,44.20
2018-07-27T06:52:08.925Z,41.90
2018-07-27T06:54:37.542Z,39.60
2018-07-27T06:57:05.734Z,36.10
2018-07-27T06:59:33.857Z,34.20
2018-07-27T07:02:01.982Z,31.50
2018-07-27T07:04:30.177Z,30.00
2018-07-27T07:06:58.354Z,28.60
2018-07-27T07:09:26.518Z,27.80
2018-07-27T07:11:55.679Z,27.50
2018-07-27T07:14:24.044Z,27.00
2018-07-27T07:16:52.176Z,26.10
2018-07-27T07:19:20.304Z,25.70
2018-07-27T07:21:48.443Z,25.40
2018-07-27T07:24:16.886Z,24.30
2018-07-27T07:26:45.052Z,24.00
2018-07-27T07:29:13.183Z,23.80
2018-07-27T07:31:41.316Z,23.70
2018-07-27T07:34:09.451Z,23.50
2018-07-27T07:36:38.492Z,23.30
2018-07-27T07:39:08.591Z,23.10
2018-07-27T07:41:36.784Z,22.70
2018-07-27T07:44:04.956Z,22.80
2018-07-27T07:46:33.063Z,21.70
2018-07-27T07:49:04.756Z,22.60
2018-07-27T07:51:33.763Z,21.90
2018-07-27T07:54:01.913Z,21.70
2018-07-27T07:56:30.224Z,21.90
2018-07-27T07:58:58.339Z,21.70
2018-07-27T08:01:26.523Z,21.80
2018-07-27T08:03:54.702Z,21.20
2018-07-27T08:06:23.131Z,20.90
2018-07-27T08:08:51.277Z,20.90
2018-07-27T08:11:19.426Z,20.70
2018-07-27T08:13:47.734Z,20.70
2018-07-27T08:16:15.889Z,20.70
2018-07-27T08:18:44.112Z,20.60
2018-07-27T08:21:12.256Z,20.70
2018-07-27T08:23:40.420Z,20.10
2018-07-27T08:26:49.368Z,20.00
2018-07-27T08:29:18.802Z,20.30
2018-07-27T08:31:48.076Z,20.00
2018-07-27T08:34:17.446Z,20.10
2018-07-27T08:36:45.702Z,19.90
2018-07-27T08:39:15.775Z,19.70
2018-07-27T08:41:44.260Z,19.00
2018-07-27T08:44:13.594Z,19.20
2018-07-27T08:46:41.783Z,19.10
2018-07-27T08:49:10.302Z,18.30
2018-07-27T08:51:38.703Z,18.50
2018-07-27T08:54:06.940Z,18.60
2018-07-27T08:56:35.093Z,17.30
2018-07-27T08:59:03.255Z,17.70
2018-07-27T09:01:31.403Z,17.20
2018-07-27T09:03:59.590Z,17.20
2018-07-27T09:06:27.688Z,17.40
2018-07-27T09:08:55.807Z,16.30
2018-07-27T09:11:24.196Z,16.90
2018-07-27T09:13:52.672Z,16.20
2018-07-27T09:16:21.152Z,16.40
2018-07-27T09:18:49.329Z,16.90
2018-07-27T09:23:45.363Z,16.40
2018-07-27T09:28:41.399Z,15.90
2018-07-27T09:31:09.571Z,15.80
2018-07-27T09:33:38.584Z,16.10
2018-07-27T09:36:06.700Z,16.30
2018-07-27T09:38:34.806Z,16.50
2018-07-27T09:41:02.921Z,15.90
2018-07-27T09:43:31.052Z,15.60
2018-07-27T09:45:59.152Z,15.90
2018-07-27T09:48:27.278Z,16.40
2018-07-27T09:50:55.419Z,16.10
2018-07-27T09:53:23.540Z,15.80
2018-07-27T09:55:51.643Z,16.40
2018-07-27T09:58:19.783Z,15.60
2018-07-27T10:00:53.358Z,15.70
2018-07-27T10:03:21.487Z,15.40
2018-07-27T10:05:49.663Z,16.00
2018-07-27T10:08:17.793Z,15.00
2018-07-27T10:10:45.937Z,15.30
2018-07-27T10:18:09.996Z,15.00
2018-07-27T10:20:38.770Z,15.40
2018-07-27T10:23:06.898Z,15.20
2018-07-27T10:25:35.039Z,14.60
2018-07-27T10:28:03.171Z,15.20
2018-07-27T10:30:31.335Z,15.40
2018-07-27T10:32:59.494Z,13.90
2018-07-27T10:35:27.639Z,14.00
2018-07-27T10:37:55.751Z,13.50
2018-07-27T10:40:23.881Z,14.30
2018-07-27T10:42:52.027Z,14.00
2018-07-27T10:50:16.031Z,13.60
2018-07-27T10:52:44.127Z,14.20
2018-07-27T10:55:12.284Z,14.10
2018-07-27T10:57:40.464Z,13.40
2018-07-27T11:00:10.650Z,13.20
2018-07-27T11:02:39.236Z,13.40
2018-07-27T11:05:07.420Z,13.00
2018-07-27T11:07:35.549Z,13.40
2018-07-27T11:10:03.731Z,13.50
2018-07-27T11:12:32.699Z,12.90
2018-07-27T11:15:00.826Z,13.10
2018-07-27T11:17:28.982Z,12.80
2018-07-27T11:19:57.044Z,13.00
2018-07-27T11:22:25.161Z,13.20
2018-07-27T11:24:53.266Z,12.70
2018-07-27T11:27:21.362Z,12.90
2018-07-27T11:29:49.500Z,12.70
2018-07-27T11:32:17.691Z,12.90
2018-07-27T11:34:45.781Z,12.30
2018-07-27T11:37:13.906Z,12.60
2018-07-27T11:39:42.006Z,13.00
2018-07-27T11:42:10.272Z,12.80
2018-07-27T11:44:38.991Z,13.60
2018-07-27T11:47:07.203Z,13.10
2018-07-27T11:49:35.396Z,12.80
2018-07-27T11:52:10.109Z,12.90
2018-07-27T11:54:39.120Z,12.80
2018-07-27T11:57:07.295Z,13.00
2018-07-27T11:59:35.913Z,12.80
2018-07-27T12:02:04.035Z,13.10
2018-07-27T12:04:32.196Z,12.10
2018-07-27T12:07:00.644Z,12.20
2018-07-27T12:09:28.710Z,12.40
2018-07-27T12:11:56.908Z,12.50
2018-07-27T12:14:25.246Z,12.40
2018-07-27T12:16:53.166Z,12.60
2018-07-27T12:19:21.360Z,11.90
2018-07-27T12:21:49.790Z,12.70
2018-07-27T12:24:19.015Z,12.50
2018-07-27T12:26:47.999Z,13.20
2018-07-27T12:29:16.142Z,12.40
2018-07-27T12:31:44.309Z,12.50
2018-07-27T12:34:13.220Z,13.10
2018-07-27T12:36:41.355Z,13.00
2018-07-27T12:39:10.727Z,12.50
2018-07-27T12:41:40.243Z,13.00
2018-07-27T12:44:09.820Z,12.50
2018-07-27T12:46:38.833Z,13.00
2018-07-27T12:49:07.016Z,13.10
2018-07-27T12:51:35.171Z,12.50
2018-07-27T12:54:03.314Z,12.90
2018-07-27T12:56:31.595Z,12.80
2018-07-27T12:58:59.804Z,12.60
2018-07-27T13:01:27.923Z,12.80
2018-07-27T13:03:56.179Z,12.50
2018-07-27T13:06:24.327Z,12.40
2018-07-27T13:08:52.451Z,12.70
2018-07-27T13:11:20.582Z,12.70
2018-07-27T13:13:48.739Z,12.80
2018-07-27T13:16:16.840Z,12.70
2018-07-27T13:18:44.958Z,13.00
2018-07-27T13:21:13.071Z,12.40
2018-07-27T13:23:51.300Z,12.60
2018-07-27T13:28:47.816Z,12.80
2018-07-27T13:31:15.919Z,12.40
2018-07-27T13:34:01.184Z,12.90
2018-07-27T13:36:29.280Z,12.60
2018-07-27T13:38:57.404Z,12.70
2018-07-27T13:41:25.553Z,12.80
2018-07-27T13:43:53.685Z,12.10
2018-07-27T13:46:21.838Z,12.20
2018-07-27T13:48:49.958Z,12.30
2018-07-27T13:51:18.088Z,12.40
2018-07-27T13:53:46.199Z,12.70
2018-07-27T13:56:14.316Z,12.00
2018-07-27T13:58:42.441Z,12.90
2018-07-27T14:01:10.628Z,13.00
2018-07-27T14:03:39.244Z,12.90
2018-07-27T14:06:07.359Z,13.50
2018-07-27T14:08:35.504Z,13.10
2018-07-27T14:11:03.700Z,12.80
2018-07-27T14:13:31.831Z,13.20
2018-07-27T14:15:59.962Z,12.90
2018-07-27T14:18:28.077Z,13.20
2018-07-27T14:20:56.195Z,12.80
2018-07-27T14:23:24.304Z,12.70
2018-07-27T14:25:52.440Z,13.00
2018-07-27T14:28:20.568Z,13.10
2018-07-27T14:30:48.674Z,13.50
2018-07-27T14:33:16.764Z,13.20
2018-07-27T14:35:44.890Z,14.00
2018-07-27T14:38:13.008Z,13.70
2018-07-27T14:40:41.152Z,14.10
2018-07-27T14:43:09.280Z,14.10
2018-07-27T14:45:37.446Z,14.70
2018-07-27T14:48:05.631Z,14.90
2018-07-27T14:50:33.879Z,15.00
2018-07-27T14:53:01.991Z,15.30
2018-07-27T14:57:58.016Z,15.40
2018-07-27T15:00:26.130Z,15.50
2018-07-27T15:02:54.232Z,16.40
2018-07-27T15:05:22.399Z,15.90
2018-07-27T15:07:50.573Z,17.10
2018-07-27T15:10:18.757Z,16.80
2018-07-27T15:12:47.013Z,17.20
2018-07-27T15:15:15.156Z,17.20
2018-07-27T15:17:43.283Z,17.80
2018-07-27T15:20:11.493Z,16.90
2018-07-27T15:22:39.615Z,17.60
2018-07-27T15:25:07.755Z,17.20
2018-07-27T15:27:35.888Z,17.20
2018-07-27T15:30:04.850Z,17.70
2018-07-27T15:32:33.327Z,17.90
2018-07-27T15:37:40.429Z,18.00
2018-07-27T15:42:36.444Z,17.70
2018-07-27T15:45:04.854Z,17.80
2018-07-27T15:50:00.933Z,18.10
2018-07-27T15:54:57.023Z,18.10
2018-07-27T15:59:53.127Z,18.50
2018-07-27T16:02:21.275Z,19.00
2018-07-27T16:07:17.332Z,18.60
2018-07-27T16:09:45.493Z,19.20
2018-07-27T16:12:13.649Z,19.30
2018-07-27T16:14:41.863Z,19.40
2018-07-27T16:17:10.063Z,19.30
2018-07-27T16:19:38.993Z,19.30
2018-07-27T16:22:07.161Z,19.90
2018-07-27T16:24:35.288Z,19.60
2018-07-27T16:27:03.451Z,20.10
2018-07-27T16:29:31.602Z,20.00
2018-07-27T16:31:59.793Z,20.00
2018-07-27T16:34:27.919Z,20.20
2018-07-27T16:36:56.116Z,20.60
2018-07-27T16:39:24.247Z,20.30
2018-07-27T16:41:53.459Z,20.60
2018-07-27T16:46:49.688Z,20.20
2018-07-27T16:49:17.847Z,20.20
2018-07-27T16:51:45.987Z,20.10
2018-07-27T16:54:15.431Z,21.40
2018-07-27T17:01:39.419Z,20.30
2018-07-27T17:04:07.588Z,20.80
2018-07-27T17:06:35.733Z,21.20
2018-07-27T17:09:05.877Z,20.50
2018-07-27T17:11:34.022Z,20.40
2018-07-27T17:14:02.184Z,20.80
2018-07-27T17:16:30.287Z,20.60
2018-07-27T17:21:26.340Z,20.60
2018-07-27T17:23:54.479Z,20.70
2018-07-27T17:26:22.595Z,20.90
2018-07-27T17:28:50.785Z,20.80
2018-07-27T17:31:18.956Z,21.00
2018-07-27T17:33:47.115Z,20.80
2018-07-27T17:36:15.242Z,21.20
2018-07-27T17:38:43.420Z,21.80
2018-07-27T17:41:11.555Z,21.70
2018-07-27T17:43:39.688Z,21.60
2018-07-27T17:48:35.852Z,21.70
2018-07-27T17:51:03.997Z,22.20
2018-07-27T17:53:32.130Z,22.30
2018-07-27T17:56:00.253Z,21.90
2018-07-27T17:58:28.345Z,22.40
2018-07-27T18:00:56.557Z,22.60
2018-07-27T18:03:24.706Z,22.80
2018-07-27T18:05:53.299Z,23.10
2018-07-27T18:08:21.466Z,23.20
2018-07-27T18:10:49.587Z,23.60
2018-07-27T18:15:45.660Z,22.70
2018-07-27T18:18:13.810Z,23.30
2018-07-27T18:20:41.965Z,23.40
2018-07-27T18:23:10.125Z,24.60
2018-07-27T18:25:38.249Z,23.90
2018-07-27T18:28:07.364Z,24.00
2018-07-27T18:30:35.499Z,24.10
2018-07-27T18:33:03.699Z,24.20
2018-07-27T18:35:31.880Z,23.90
2018-07-27T18:38:00.049Z,24.60
2018-07-27T18:40:28.207Z,23.90
2018-07-27T18:42:56.404Z,24.40
2018-07-27T18:45:24.557Z,24.50
2018-07-27T18:47:52.688Z,25.00
2018-07-27T18:50:20.864Z,25.20
2018-07-27T18:52:49.029Z,24.70
2018-07-27T18:55:17.163Z,24.70
2018-07-27T18:57:45.324Z,25.30
2018-07-27T19:05:09.424Z,25.30
2018-07-27T19:07:37.590Z,26.00
2018-07-27T19:10:06.220Z,26.30
2018-07-27T19:12:34.501Z,25.90
2018-07-27T19:15:02.636Z,25.90
2018-07-27T19:17:30.813Z,26.40
2018-07-27T19:19:58.991Z,26.80
2018-07-27T19:22:27.135Z,26.70
2018-07-27T19:24:55.385Z,26.90
2018-07-27T19:27:23.615Z,27.20
2018-07-27T19:29:51.887Z,27.50
2018-07-27T19:34:48.053Z,26.70
2018-07-27T19:37:16.293Z,27.60
2018-07-27T19:42:13.041Z,27.50
2018-07-27T19:47:09.358Z,28.00
2018-07-27T19:52:06.058Z,28.40
2018-07-27T19:54:34.269Z,28.60
2018-07-27T19:57:02.450Z,29.10
2018-07-27T19:59:30.631Z,29.50
2018-07-27T20:01:58.987Z,29.40
2018-07-27T20:04:27.190Z,29.80
2018-07-27T20:06:55.371Z,29.80
2018-07-27T20:09:23.792Z,29.40
2018-07-27T20:11:51.987Z,29.30
2018-07-27T20:19:16.363Z,29.80
2018-07-27T20:26:40.740Z,29.80
2018-07-27T20:36:32.756Z,30.70
2018-07-27T20:41:28.852Z,30.80
2018-07-27T20:46:25.232Z,30.90
2018-07-27T20:53:49.299Z,31.20
2018-07-27T20:58:45.380Z,32.00
2018-07-27T21:08:37.269Z,31.20
2018-07-27T21:11:05.379Z,31.30
2018-07-27T21:13:33.512Z,31.30
2018-07-27T21:16:01.652Z,30.90
2018-07-27T21:20:57.727Z,30.90
2018-07-27T21:23:25.905Z,31.40
2018-07-27T21:28:21.924Z,29.80
2018-07-27T21:30:50.118Z,30.00
2018-07-27T21:33:18.307Z,29.50
2018-07-27T21:35:46.520Z,31.00
2018-07-27T21:38:14.706Z,30.10
2018-07-27T21:40:42.865Z,29.50
2018-07-27T21:43:11.039Z,30.60
2018-07-27T21:45:40.117Z,30.40
2018-07-27T21:48:08.491Z,30.20
2018-07-27T21:50:36.644Z,30.70
2018-07-27T21:53:04.811Z,31.10
2018-07-27T21:55:33.363Z,31.50
2018-07-27T21:58:01.783Z,31.00
2018-07-27T22:00:32.672Z,32.10
2018-07-27T22:03:01.387Z,31.80
2018-07-27T22:05:29.715Z,32.20
2018-07-27T22:07:57.921Z,31.30
2018-07-27T22:12:54.820Z,32.60
2018-07-27T22:15:26.095Z,33.00
2018-07-27T22:17:55.582Z,32.40
2018-07-27T22:20:24.512Z,32.80
2018-07-27T22:22:52.647Z,33.20
2018-07-27T22:25:21.450Z,33.30
2018-07-27T22:27:49.740Z,34.20
2018-07-27T22:32:45.827Z,34.20
2018-07-27T22:45:09.228Z,36.10
2018-07-27T22:47:37.421Z,35.40
2018-07-27T22:50:06.478Z,35.80
2018-07-27T22:55:11.045Z,36.10
2018-07-27T22:57:40.076Z,35.50
2018-07-27T23:02:38.335Z,36.70
2018-07-27T23:07:34.915Z,36.90
2018-07-27T23:10:03.140Z,36.70
2018-07-27T23:12:31.320Z,36.70
2018-07-27T23:14:59.520Z,37.20
2018-07-27T23:17:27.835Z,38.00
2018-07-27T23:19:56.055Z,37.50
2018-07-27T23:22:24.348Z,38.50
2018-07-27T23:24:52.969Z,37.80
2018-07-27T23:29:49.166Z,38.00
2018-07-27T23:32:17.487Z,37.90
2018-07-27T23:34:45.699Z,38.60
2018-07-27T23:37:13.870Z,39.70
2018-07-27T23:39:42.020Z,39.70
2018-07-27T23:42:10.234Z,39.60
2018-07-27T23:44:38.397Z,39.60
2018-07-27T23:47:06.666Z,39.30
2018-07-27T23:49:34.863Z,40.00
2018-07-27T23:52:03.257Z,39.80
2018-07-27T23:54:31.420Z,40.30
2018-07-27T23:59:27.540Z,40.40
